createdAt,value
2022-08-30T00:01:03.127Z,4.35
2022-08-30T00:03:38.328Z,4.85
2022-08-30T00:06:08.496Z,4.25
2022-08-30T00:08:36.473Z,4.10
2022-08-30T00:11:05.172Z,4.95
2022-08-30T00:13:31.793Z,4.68
2022-08-30T00:15:58.358Z,5.07
2022-08-30T00:18:25.017Z,4.32
2022-08-30T00:20:52.286Z,4.13
2022-08-30T00:23:20.258Z,4.05
2022-08-30T00:25:46.772Z,4.28
2022-08-30T00:28:14.614Z,4.07
2022-08-30T00:30:42.219Z,4.47
2022-08-30T00:33:09.955Z,4.20
2022-08-30T00:35:38.617Z,4.93
2022-08-30T00:38:05.241Z,4.20
2022-08-30T00:40:32.010Z,4.07
2022-08-30T00:43:02.193Z,4.18
2022-08-30T00:45:35.203Z,4.13
2022-08-30T00:48:02.064Z,4.35
2022-08-30T00:50:34.321Z,4.63
2022-08-30T00:53:04.787Z,4.35
2022-08-30T00:55:33.207Z,4.72
2022-08-30T00:58:04.281Z,4.40
2022-08-30T01:00:31.915Z,4.80
2022-08-30T01:02:58.699Z,4.45
2022-08-30T01:05:25.447Z,4.68
2022-08-30T01:07:51.994Z,4.70
2022-08-30T01:10:18.956Z,4.85
2022-08-30T01:12:46.993Z,4.93
2022-08-30T01:15:15.058Z,4.18
2022-08-30T01:17:47.357Z,4.80
2022-08-30T01:20:21.825Z,4.85
2022-08-30T01:25:22.136Z,5.30
2022-08-30T01:28:17.734Z,4.40
2022-08-30T01:30:44.832Z,4.57
2022-08-30T01:33:11.721Z,4.25
2022-08-30T01:35:53.877Z,4.97
2022-08-30T01:38:24.738Z,4.60
2022-08-30T01:40:57.678Z,4.32
2022-08-30T01:45:50.909Z,4.85
2022-08-30T01:48:17.516Z,5.15
2022-08-30T01:50:44.146Z,4.47
2022-08-30T01:53:15.200Z,5.00
2022-08-30T01:55:42.370Z,4.88
2022-08-30T01:58:09.222Z,4.30
2022-08-30T02:00:35.687Z,4.95
2022-08-30T02:03:02.173Z,5.50
2022-08-30T02:05:28.688Z,4.97
2022-08-30T02:07:55.500Z,4.68
2022-08-30T02:10:22.102Z,5.70
2022-08-30T02:12:48.593Z,5.05
2022-08-30T02:15:15.489Z,5.38
2022-08-30T02:17:42.432Z,5.05
2022-08-30T02:20:09.964Z,5.30
2022-08-30T02:22:36.944Z,5.35
2022-08-30T02:25:07.204Z,4.90
2022-08-30T02:27:47.388Z,5.15
2022-08-30T02:30:14.067Z,4.55
2022-08-30T02:32:41.501Z,5.03
2022-08-30T02:35:08.374Z,5.25
2022-08-30T02:37:34.914Z,4.80
2022-08-30T02:40:01.492Z,5.05
2022-08-30T02:42:27.970Z,4.95
2022-08-30T02:44:54.555Z,4.95
2022-08-30T02:47:21.008Z,5.43
2022-08-30T02:49:47.471Z,5.28
2022-08-30T02:52:14.010Z,5.20
2022-08-30T02:54:40.488Z,5.50
2022-08-30T02:57:08.749Z,4.85
2022-08-30T02:59:47.856Z,4.53
2022-08-30T03:02:15.203Z,5.30
2022-08-30T03:04:43.494Z,5.07
2022-08-30T03:07:10.500Z,5.30
2022-08-30T03:09:37.049Z,5.00
2022-08-30T03:12:05.924Z,5.18
2022-08-30T03:14:33.213Z,4.68
2022-08-30T03:16:59.677Z,4.93
2022-08-30T03:19:26.174Z,5.60
2022-08-30T03:21:52.640Z,4.90
2022-08-30T03:24:19.399Z,4.97
2022-08-30T03:26:46.660Z,5.18
2022-08-30T03:29:13.629Z,5.32
2022-08-30T03:31:45.388Z,5.28
2022-08-30T03:34:19.934Z,5.70
2022-08-30T03:36:48.466Z,5.30
2022-08-30T03:39:15.239Z,5.57
2022-08-30T03:41:41.726Z,5.05
2022-08-30T03:44:08.995Z,5.18
2022-08-30T03:46:37.483Z,5.35
2022-08-30T03:49:05.401Z,5.50
2022-08-30T03:51:32.197Z,4.95
2022-08-30T03:53:58.806Z,5.20
2022-08-30T03:56:25.671Z,5.38
2022-08-30T03:58:52.118Z,5.80
2022-08-30T04:01:18.732Z,5.22
2022-08-30T04:03:45.626Z,5.20
2022-08-30T04:06:12.349Z,5.03
2022-08-30T04:08:39.089Z,6.00
2022-08-30T04:11:07.117Z,5.10
2022-08-30T04:13:33.868Z,5.57
2022-08-30T04:16:00.470Z,6.25
2022-08-30T04:18:27.022Z,5.65
2022-08-30T04:20:53.638Z,5.38
2022-08-30T04:23:20.677Z,5.15
2022-08-30T04:25:47.357Z,5.78
2022-08-30T04:28:13.877Z,6.07
2022-08-30T04:30:42.724Z,5.85
2022-08-30T04:33:09.796Z,5.65
2022-08-30T04:35:36.348Z,6.00
2022-08-30T04:38:03.803Z,5.40
2022-08-30T04:40:30.363Z,6.22
2022-08-30T04:42:57.289Z,5.20
2022-08-30T04:45:24.858Z,5.57
2022-08-30T04:47:51.670Z,5.20
2022-08-30T04:50:20.825Z,5.30
2022-08-30T04:52:47.542Z,5.63
2022-08-30T04:55:19.480Z,5.70
2022-08-30T04:57:46.948Z,6.00
2022-08-30T05:00:14.558Z,5.90
2022-08-30T05:02:42.128Z,6.50
2022-08-30T05:05:28.490Z,6.15
2022-08-30T05:07:54.951Z,6.07
2022-08-30T05:10:21.801Z,6.70
2022-08-30T05:12:48.250Z,5.93
2022-08-30T05:15:14.967Z,6.93
2022-08-30T05:17:42.314Z,6.32
2022-08-30T05:20:11.449Z,6.70
2022-08-30T05:22:40.338Z,6.53
2022-08-30T05:25:07.865Z,6.85
2022-08-30T05:27:37.649Z,6.78
2022-08-30T05:30:06.224Z,6.75
2022-08-30T05:32:32.805Z,6.50
2022-08-30T05:34:59.274Z,7.28
2022-08-30T05:37:25.812Z,6.55
2022-08-30T05:39:52.262Z,7.70
2022-08-30T05:42:19.254Z,8.30
2022-08-30T05:44:45.732Z,10.77
2022-08-30T05:47:12.197Z,11.15
2022-08-30T05:49:38.631Z,10.30
2022-08-30T05:52:05.410Z,9.52
2022-08-30T05:54:31.859Z,10.00
2022-08-30T05:56:58.309Z,8.77
2022-08-30T05:59:24.732Z,9.05
2022-08-30T06:01:51.291Z,7.95
2022-08-30T06:04:18.305Z,8.65
2022-08-30T06:06:44.906Z,8.75
2022-08-30T06:09:13.400Z,8.52
2022-08-30T06:11:40.206Z,8.13
2022-08-30T06:14:07.118Z,8.00
2022-08-30T06:16:34.298Z,7.97
2022-08-30T06:19:01.125Z,6.75
2022-08-30T06:21:30.915Z,7.07
2022-08-30T06:23:58.401Z,7.00
2022-08-30T06:26:26.703Z,7.45
2022-08-30T06:28:53.598Z,7.50
2022-08-30T06:31:22.702Z,7.50
2022-08-30T06:33:50.045Z,6.95
2022-08-30T06:36:20.680Z,7.28
2022-08-30T06:38:50.435Z,7.13
2022-08-30T06:41:19.525Z,6.85
2022-08-30T06:44:03.952Z,6.22
2022-08-30T06:46:32.883Z,7.35
2022-08-30T06:49:00.360Z,6.63
2022-08-30T06:51:30.133Z,7.70
2022-08-30T06:53:57.535Z,6.72
2022-08-30T06:56:25.215Z,6.93
2022-08-30T06:58:51.906Z,7.65
2022-08-30T07:01:24.024Z,7.28
2022-08-30T07:03:51.523Z,7.03
2022-08-30T07:06:19.057Z,6.80
2022-08-30T07:08:46.814Z,5.93
2022-08-30T07:11:13.325Z,6.63
2022-08-30T07:13:39.903Z,6.63
2022-08-30T07:16:11.730Z,6.25
2022-08-30T07:18:50.539Z,6.93
2022-08-30T07:21:20.071Z,6.97
2022-08-30T07:23:53.643Z,5.30
2022-08-30T07:26:24.574Z,5.80
2022-08-30T07:28:55.748Z,5.93
2022-08-30T07:31:23.800Z,5.20
2022-08-30T07:33:50.689Z,4.97
2022-08-30T07:36:17.735Z,4.57
2022-08-30T07:38:49.041Z,4.70
2022-08-30T07:41:41.111Z,4.82
2022-08-30T07:44:08.418Z,4.75
2022-08-30T07:46:35.898Z,5.18
2022-08-30T07:49:04.039Z,4.60
2022-08-30T07:51:31.916Z,4.00
2022-08-30T07:53:58.814Z,4.93
2022-08-30T07:56:25.945Z,4.82
2022-08-30T07:58:53.578Z,3.60
2022-08-30T08:01:22.305Z,3.92
2022-08-30T08:03:50.379Z,3.60
2022-08-30T08:06:19.319Z,4.00
2022-08-30T08:08:45.816Z,4.03
2022-08-30T08:11:16.803Z,3.47
2022-08-30T08:13:47.254Z,3.83
2022-08-30T08:16:24.870Z,3.90
2022-08-30T08:18:52.586Z,4.10
2022-08-30T08:21:20.045Z,3.75
2022-08-30T08:23:46.985Z,3.45
2022-08-30T08:26:13.780Z,3.47
2022-08-30T08:28:40.324Z,4.05
2022-08-30T08:31:33.547Z,3.80
2022-08-30T08:34:02.684Z,4.05
2022-08-30T08:36:31.334Z,3.97
2022-08-30T08:38:58.591Z,3.20
2022-08-30T08:41:37.123Z,3.58
2022-08-30T08:44:18.779Z,4.22
2022-08-30T08:49:15.821Z,3.72
2022-08-30T08:52:00.892Z,3.05
2022-08-30T08:54:44.463Z,3.08
2022-08-30T08:57:13.803Z,3.28
2022-08-30T08:59:43.360Z,3.70
2022-08-30T09:02:34.382Z,4.00
2022-08-30T09:05:02.460Z,3.33
2022-08-30T09:07:41.965Z,3.63
2022-08-30T09:10:08.681Z,2.90
2022-08-30T09:12:35.779Z,3.30
2022-08-30T09:15:21.988Z,3.05
2022-08-30T09:18:00.163Z,3.30
2022-08-30T09:20:35.131Z,3.30
2022-08-30T09:23:27.324Z,3.10
2022-08-30T09:26:08.921Z,3.47
2022-08-30T09:28:49.404Z,3.42
2022-08-30T09:31:20.130Z,3.42
2022-08-30T09:34:09.678Z,2.78
2022-08-30T09:36:49.836Z,3.25
2022-08-30T09:39:27.806Z,3.20
2022-08-30T09:42:09.875Z,3.30
2022-08-30T09:44:38.886Z,3.60
2022-08-30T09:47:06.785Z,3.50
2022-08-30T09:49:35.386Z,3.20
2022-08-30T09:52:15.354Z,3.50
2022-08-30T09:55:42.199Z,3.47
2022-08-30T09:58:13.398Z,3.10
2022-08-30T10:01:04.230Z,3.30
2022-08-30T10:03:43.189Z,2.92
2022-08-30T10:06:21.906Z,3.20
2022-08-30T10:08:52.282Z,3.90
2022-08-30T10:11:43.746Z,3.42
2022-08-30T10:14:34.536Z,4.65
2022-08-30T10:17:16.038Z,3.30
2022-08-30T10:20:10.526Z,2.60
2022-08-30T10:22:42.289Z,3.10
2022-08-30T10:25:19.297Z,2.70
2022-08-30T10:27:53.071Z,3.47
2022-08-30T10:30:19.819Z,3.60
2022-08-30T10:33:04.953Z,2.95
2022-08-30T10:36:00.569Z,3.40
2022-08-30T10:38:32.614Z,3.78
2022-08-30T10:41:17.244Z,3.00
2022-08-30T10:46:34.621Z,3.58
2022-08-30T10:49:05.190Z,3.33
2022-08-30T10:51:41.969Z,3.30
2022-08-30T10:54:18.651Z,3.38
2022-08-30T10:56:51.402Z,3.13
2022-08-30T10:59:19.449Z,3.35
2022-08-30T11:02:02.252Z,3.13
2022-08-30T11:04:56.674Z,2.97
2022-08-30T11:07:52.279Z,2.80
2022-08-30T11:13:08.709Z,2.80
2022-08-30T11:15:51.301Z,3.08
2022-08-30T11:18:18.945Z,2.85
2022-08-30T11:20:53.828Z,3.13
2022-08-30T11:23:36.388Z,3.17
2022-08-30T11:26:07.488Z,2.70
2022-08-30T11:28:36.834Z,2.97
2022-08-30T11:31:07.271Z,2.65
2022-08-30T11:33:46.626Z,3.05
2022-08-30T11:36:37.269Z,2.83
2022-08-30T11:39:32.444Z,2.83
2022-08-30T11:42:36.093Z,3.15
2022-08-30T11:45:25.368Z,2.83
2022-08-30T11:48:05.509Z,2.90
2022-08-30T11:51:00.145Z,2.80
2022-08-30T11:53:58.284Z,3.17
2022-08-30T11:56:36.333Z,2.85
2022-08-30T11:59:36.717Z,3.53
2022-08-30T12:02:03.452Z,3.25
2022-08-30T12:04:44.845Z,3.92
2022-08-30T12:07:12.585Z,3.03
2022-08-30T12:09:45.001Z,3.35
2022-08-30T12:12:37.567Z,2.83
2022-08-30T12:15:04.655Z,2.80
2022-08-30T12:18:07.561Z,3.30
2022-08-30T12:20:49.914Z,2.85
2022-08-30T12:23:32.714Z,2.88
2022-08-30T12:26:20.576Z,3.13
2022-08-30T12:28:49.213Z,3.13
2022-08-30T12:31:25.886Z,2.80
2022-08-30T12:34:00.746Z,3.22
2022-08-30T12:36:41.461Z,2.90
2022-08-30T12:39:21.168Z,2.70
2022-08-30T12:41:48.020Z,2.88
2022-08-30T12:44:25.649Z,3.08
2022-08-30T12:47:02.955Z,3.42
2022-08-30T12:49:35.491Z,3.10
2022-08-30T12:52:34.846Z,2.92
2022-08-30T12:55:19.756Z,2.90
2022-08-30T12:58:09.392Z,3.38
2022-08-30T13:00:39.728Z,3.25
2022-08-30T13:03:36.606Z,3.70
2022-08-30T13:06:08.268Z,3.92
2022-08-30T13:08:36.776Z,3.58
2022-08-30T13:11:09.069Z,4.18
2022-08-30T13:16:24.700Z,4.03
2022-08-30T13:18:55.696Z,3.92
2022-08-30T13:21:24.091Z,3.63
2022-08-30T13:23:56.691Z,3.67
2022-08-30T13:26:23.532Z,3.85
2022-08-30T13:28:57.841Z,4.35
2022-08-30T13:31:27.640Z,3.80
2022-08-30T13:33:55.185Z,4.95
2022-08-30T13:36:28.322Z,4.13
2022-08-30T13:38:56.042Z,3.90
2022-08-30T13:41:25.238Z,3.90
2022-08-30T13:44:13.426Z,3.75
2022-08-30T13:46:44.785Z,3.85
2022-08-30T13:52:22.602Z,4.32
2022-08-30T13:54:54.287Z,4.57
2022-08-30T14:00:15.213Z,5.07
2022-08-30T14:02:45.362Z,4.63
2022-08-30T14:05:30.835Z,4.57
2022-08-30T14:07:59.854Z,4.28
2022-08-30T14:10:31.197Z,5.05
2022-08-30T14:13:07.914Z,4.03
2022-08-30T14:15:38.771Z,4.38
2022-08-30T14:18:06.487Z,4.47
2022-08-30T14:20:35.292Z,4.20
2022-08-30T14:23:05.113Z,3.83
2022-08-30T14:25:36.592Z,4.20
2022-08-30T14:28:03.774Z,4.60
2022-08-30T14:30:30.374Z,4.28
2022-08-30T14:32:56.854Z,4.47
2022-08-30T14:35:23.724Z,4.10
2022-08-30T14:37:50.785Z,4.55
2022-08-30T14:40:18.185Z,3.70
2022-08-30T14:42:45.203Z,3.60
2022-08-30T14:45:11.890Z,4.30
2022-08-30T14:47:38.670Z,4.20
2022-08-30T14:50:06.187Z,4.03
2022-08-30T14:52:33.478Z,4.90
2022-08-30T14:55:06.677Z,4.60
2022-08-30T14:57:35.493Z,4.25
2022-08-30T15:00:06.821Z,4.60
2022-08-30T15:02:33.264Z,4.43
2022-08-30T15:04:59.788Z,4.40
2022-08-30T15:07:26.299Z,4.30
2022-08-30T15:09:52.849Z,4.50
2022-08-30T15:12:19.348Z,5.05
2022-08-30T15:14:46.443Z,4.20
2022-08-30T15:17:13.057Z,3.97
2022-08-30T15:19:39.590Z,4.13
2022-08-30T15:22:07.014Z,4.50
2022-08-30T15:24:35.054Z,4.15
2022-08-30T15:27:02.562Z,4.50
2022-08-30T15:29:30.413Z,3.92
2022-08-30T15:31:59.400Z,3.85
2022-08-30T15:34:26.188Z,4.75
2022-08-30T15:36:54.910Z,4.30
2022-08-30T15:39:21.507Z,4.35
2022-08-30T15:41:54.732Z,3.97
2022-08-30T15:44:25.369Z,4.70
2022-08-30T15:46:52.031Z,4.40
2022-08-30T15:49:22.051Z,4.70
2022-08-30T15:51:51.676Z,4.43
2022-08-30T15:54:22.537Z,4.20
2022-08-30T15:56:49.004Z,4.65
2022-08-30T15:59:17.420Z,4.60
2022-08-30T16:01:45.659Z,4.30
2022-08-30T16:04:14.807Z,4.30
2022-08-30T16:06:41.776Z,4.45
2022-08-30T16:09:09.855Z,4.13
2022-08-30T16:11:37.286Z,5.13
2022-08-30T16:14:05.094Z,4.55
2022-08-30T16:16:31.753Z,4.75
2022-08-30T16:18:58.537Z,4.88
2022-08-30T16:21:38.555Z,4.38
2022-08-30T16:24:07.461Z,5.00
2022-08-30T16:26:37.900Z,4.82
2022-08-30T16:29:07.309Z,5.00
2022-08-30T16:31:36.644Z,4.55
2022-08-30T16:34:04.462Z,5.20
2022-08-30T16:36:32.802Z,5.13
2022-08-30T16:38:59.446Z,4.75
2022-08-30T16:41:26.144Z,4.70
2022-08-30T16:43:53.873Z,5.25
2022-08-30T16:46:22.958Z,5.45
2022-08-30T16:48:52.197Z,4.97
2022-08-30T16:51:21.839Z,5.80
2022-08-30T16:53:48.783Z,5.40
2022-08-30T16:56:19.048Z,5.03
2022-08-30T16:58:47.028Z,5.05
2022-08-30T17:01:14.505Z,4.88
2022-08-30T17:03:44.035Z,4.13
2022-08-30T17:06:10.612Z,3.72
2022-08-30T17:08:37.263Z,3.42
2022-08-30T17:11:03.845Z,3.88
2022-08-30T17:13:30.810Z,3.35
2022-08-30T17:15:59.801Z,3.30
2022-08-30T17:18:26.405Z,3.22
2022-08-30T17:20:52.933Z,3.30
2022-08-30T17:23:19.437Z,2.97
2022-08-30T17:25:45.905Z,3.20
2022-08-30T17:28:13.239Z,2.80
2022-08-30T17:30:40.103Z,2.72
2022-08-30T17:33:06.929Z,2.72
2022-08-30T17:35:33.395Z,2.40
2022-08-30T17:38:00.200Z,2.40
2022-08-30T17:40:28.042Z,2.42
2022-08-30T17:42:54.635Z,2.30
2022-08-30T17:45:21.243Z,2.67
2022-08-30T17:47:48.654Z,2.50
2022-08-30T17:50:16.326Z,2.15
2022-08-30T17:52:46.242Z,2.00
2022-08-30T17:55:13.537Z,1.95
2022-08-30T17:57:41.934Z,2.33
2022-08-30T18:00:12.362Z,1.92
2022-08-30T18:02:42.758Z,2.40
2022-08-30T18:05:10.654Z,2.28
2022-08-30T18:07:37.236Z,2.30
2022-08-30T18:10:05.353Z,2.55
2022-08-30T18:12:31.964Z,2.22
2022-08-30T18:15:00.489Z,2.65
2022-08-30T18:17:28.358Z,2.40
2022-08-30T18:19:54.940Z,2.50
2022-08-30T18:22:24.300Z,2.38
2022-08-30T18:24:51.196Z,2.70
2022-08-30T18:27:17.844Z,2.85
2022-08-30T18:29:44.428Z,2.53
2022-08-30T18:32:11.502Z,2.28
2022-08-30T18:34:40.297Z,2.53
2022-08-30T18:37:11.476Z,2.70
2022-08-30T18:39:39.039Z,2.55
2022-08-30T18:42:07.809Z,2.55
2022-08-30T18:44:37.093Z,2.10
2022-08-30T18:47:05.583Z,2.20
2022-08-30T18:49:34.005Z,2.15
2022-08-30T18:52:02.595Z,2.33
2022-08-30T18:54:29.706Z,3.00
2022-08-30T18:56:56.355Z,2.20
2022-08-30T18:59:22.796Z,2.47
2022-08-30T19:02:02.309Z,1.88
2022-08-30T19:04:34.955Z,2.25
2022-08-30T19:07:03.484Z,2.03
2022-08-30T19:09:30.435Z,2.10
2022-08-30T19:11:56.886Z,2.40
2022-08-30T19:14:23.353Z,2.40
2022-08-30T19:16:54.805Z,2.47
2022-08-30T19:19:21.559Z,2.38
2022-08-30T19:21:48.832Z,2.58
2022-08-30T19:24:17.867Z,2.45
2022-08-30T19:26:46.735Z,2.00
2022-08-30T19:29:14.390Z,2.42
2022-08-30T19:31:41.709Z,2.60
2022-08-30T19:34:08.222Z,2.35
2022-08-30T19:36:34.849Z,2.60
2022-08-30T19:39:01.413Z,2.17
2022-08-30T19:41:28.322Z,2.38
2022-08-30T19:43:54.791Z,2.33
2022-08-30T19:46:21.262Z,2.28
2022-08-30T19:48:47.739Z,2.78
2022-08-30T19:51:15.042Z,2.88
2022-08-30T19:53:42.627Z,4.32
2022-08-30T19:56:09.202Z,2.70
2022-08-30T19:58:36.155Z,3.53
2022-08-30T20:01:12.137Z,3.60
2022-08-30T20:03:49.722Z,3.00
2022-08-30T20:06:19.667Z,4.20
2022-08-30T20:08:47.192Z,2.95
2022-08-30T20:11:15.462Z,3.55
2022-08-30T20:13:42.180Z,3.72
2022-08-30T20:16:10.682Z,3.60
2022-08-30T20:18:37.858Z,3.10
2022-08-30T20:21:05.390Z,2.80
2022-08-30T20:23:41.967Z,3.05
2022-08-30T20:26:10.507Z,2.83
2022-08-30T20:28:37.955Z,2.50
2022-08-30T20:31:06.390Z,2.60
2022-08-30T20:33:37.445Z,3.25
2022-08-30T20:36:06.439Z,2.63
2022-08-30T20:38:32.992Z,3.13
2022-08-30T20:41:01.073Z,3.22
2022-08-30T20:43:29.529Z,3.13
2022-08-30T20:45:56.405Z,2.42
2022-08-30T20:48:23.973Z,2.78
2022-08-30T20:50:50.422Z,2.30
2022-08-30T20:53:16.917Z,2.50
2022-08-30T20:55:45.954Z,2.30
2022-08-30T20:58:12.914Z,2.80
2022-08-30T21:00:39.686Z,3.00
2022-08-30T21:03:26.411Z,2.28
2022-08-30T21:05:53.984Z,3.17
2022-08-30T21:08:20.461Z,2.78
2022-08-30T21:10:47.874Z,3.20
2022-08-30T21:13:14.485Z,3.22
2022-08-30T21:15:45.682Z,2.75
2022-08-30T21:18:15.945Z,2.90
2022-08-30T21:20:42.559Z,2.65
2022-08-30T21:23:09.813Z,3.30
2022-08-30T21:25:41.447Z,3.35
2022-08-30T21:28:08.957Z,3.00
2022-08-30T21:30:36.524Z,3.30
2022-08-30T21:33:04.649Z,3.05
2022-08-30T21:35:49.949Z,3.30
2022-08-30T21:38:16.824Z,3.72
2022-08-30T21:40:43.913Z,3.20
2022-08-30T21:43:10.814Z,3.20
2022-08-30T21:45:39.217Z,3.53
2022-08-30T21:48:06.117Z,3.67
2022-08-30T21:50:32.902Z,3.20
2022-08-30T21:52:59.470Z,3.78
2022-08-30T21:55:26.068Z,3.25
2022-08-30T21:57:54.856Z,4.15
2022-08-30T22:00:22.098Z,3.08
2022-08-30T22:02:49.229Z,3.33
2022-08-30T22:05:19.530Z,3.25
2022-08-30T22:07:46.002Z,3.70
2022-08-30T22:10:12.692Z,4.38
2022-08-30T22:12:39.602Z,3.72
2022-08-30T22:15:08.786Z,3.67
2022-08-30T22:17:35.246Z,3.45
2022-08-30T22:20:01.699Z,3.17
2022-08-30T22:22:28.168Z,3.55
2022-08-30T22:24:54.718Z,3.95
2022-08-30T22:27:21.405Z,3.47
2022-08-30T22:29:47.933Z,3.70
2022-08-30T22:32:14.491Z,3.90
2022-08-30T22:34:40.961Z,3.88
2022-08-30T22:37:07.883Z,3.10
2022-08-30T22:39:34.471Z,3.60
2022-08-30T22:42:01.061Z,3.45
2022-08-30T22:44:27.578Z,3.83
2022-08-30T22:46:54.115Z,4.00
2022-08-30T22:49:20.616Z,3.65
2022-08-30T22:51:47.127Z,3.90
2022-08-30T22:54:13.682Z,3.95
2022-08-30T22:56:40.490Z,3.17
2022-08-30T22:59:07.476Z,3.75
2022-08-30T23:01:37.556Z,3.53
2022-08-30T23:04:06.093Z,3.97
2022-08-30T23:06:32.799Z,3.63
2022-08-30T23:08:59.692Z,3.50
2022-08-30T23:11:26.647Z,3.75
2022-08-30T23:13:53.700Z,3.50
2022-08-30T23:16:20.967Z,3.95
2022-08-30T23:18:48.461Z,3.88
2022-08-30T23:21:17.724Z,3.97
2022-08-30T23:24:03.070Z,4.07
2022-08-30T23:26:48.074Z,3.63
2022-08-30T23:29:33.863Z,3.97
2022-08-30T23:32:19.783Z,3.90
2022-08-30T23:35:05.121Z,4.00
2022-08-30T23:37:53.053Z,3.88
2022-08-30T23:40:39.971Z,3.30
2022-08-30T23:43:25.699Z,3.35
2022-08-30T23:46:10.543Z,3.30
2022-08-30T23:49:00.426Z,2.75
2022-08-30T23:51:45.259Z,3.75
2022-08-30T23:54:30.356Z,3.10
2022-08-30T23:57:15.388Z,3.42
